sensor_id;sensor_type;location;lat;lon;timestamp;pressure;altitude;pressure_sealevel;temperature;humidity
53647;BME280;39550;52.230;5.194;2022-12-18T00:01:31;102702.31;;;-0.28;76.94
53647;BME280;39550;52.230;5.194;2022-12-18T00:03:59;102709.28;;;-0.15;77.07
53647;BME280;39550;52.230;5.194;2022-12-18T00:06:27;102697.25;;;-0.28;76.74
53647;BME280;39550;52.230;5.194;2022-12-18T00:08:53;102700.81;;;-0.26;77.06
53647;BME280;39550;52.230;5.194;2022-12-18T00:11:23;102700.81;;;-0.26;77.11
53647;BME280;39550;52.230;5.194;2022-12-18T00:13:49;102713.59;;;-0.14;76.90
53647;BME280;39550;52.230;5.194;2022-12-18T00:16:18;102699.41;;;-0.23;76.67
53647;BME280;39550;52.230;5.194;2022-12-18T00:18:46;102711.44;;;-0.20;76.65
53647;BME280;39550;52.230;5.194;2022-12-18T00:21:13;102702.06;;;-0.21;76.62
53647;BME280;39550;52.230;5.194;2022-12-18T00:23:41;102706.13;;;-0.23;77.06
53647;BME280;39550;52.230;5.194;2022-12-18T00:26:18;102689.00;;;-0.36;76.64
53647;BME280;39550;52.230;5.194;2022-12-18T00:28:45;102716.75;;;-0.17;76.81
53647;BME280;39550;52.230;5.194;2022-12-18T00:31:13;102706.63;;;-0.17;77.28
53647;BME280;39550;52.230;5.194;2022-12-18T00:33:39;102684.97;;;-0.34;77.04
53647;BME280;39550;52.230;5.194;2022-12-18T00:36:08;102660.31;;;-0.47;76.55
53647;BME280;39550;52.230;5.194;2022-12-18T00:38:35;102692.34;;;-0.37;76.74
53647;BME280;39550;52.230;5.194;2022-12-18T00:41:00;102663.59;;;-0.48;76.68
53647;BME280;39550;52.230;5.194;2022-12-18T00:43:26;102681.28;;;-0.38;76.80
53647;BME280;39550;52.230;5.194;2022-12-18T00:45:52;102689.69;;;-0.39;76.62
53647;BME280;39550;52.230;5.194;2022-12-18T00:48:18;102711.81;;;-0.26;76.95
53647;BME280;39550;52.230;5.194;2022-12-18T00:50:43;102680.81;;;-0.44;76.86
53647;BME280;39550;52.230;5.194;2022-12-18T00:53:09;102720.69;;;-0.21;76.63
53647;BME280;39550;52.230;5.194;2022-12-18T00:55:38;102699.53;;;-0.31;76.42
53647;BME280;39550;52.230;5.194;2022-12-18T00:58:04;102688.38;;;-0.33;76.54
53647;BME280;39550;52.230;5.194;2022-12-18T01:00:29;102692.69;;;-0.32;76.50
53647;BME280;39550;52.230;5.194;2022-12-18T01:02:55;102689.91;;;-0.36;76.71
53647;BME280;39550;52.230;5.194;2022-12-18T01:05:20;102671.94;;;-0.49;76.95
53647;BME280;39550;52.230;5.194;2022-12-18T01:07:46;102666.59;;;-0.42;76.52
53647;BME280;39550;52.230;5.194;2022-12-18T01:10:12;102673.44;;;-0.41;76.55
53647;BME280;39550;52.230;5.194;2022-12-18T01:12:38;102675.88;;;-0.42;76.55
53647;BME280;39550;52.230;5.194;2022-12-18T01:15:06;102670.44;;;-0.47;76.71
53647;BME280;39550;52.230;5.194;2022-12-18T01:17:32;102657.25;;;-0.53;76.48
53647;BME280;39550;52.230;5.194;2022-12-18T01:19:57;102689.16;;;-0.35;76.17
53647;BME280;39550;52.230;5.194;2022-12-18T01:22:22;102657.00;;;-0.56;76.62
53647;BME280;39550;52.230;5.194;2022-12-18T01:24:48;102685.88;;;-0.44;76.87
53647;BME280;39550;52.230;5.194;2022-12-18T01:27:13;102654.22;;;-0.59;76.78
53647;BME280;39550;52.230;5.194;2022-12-18T01:29:39;102655.72;;;-0.61;76.65
53647;BME280;39550;52.230;5.194;2022-12-18T01:32:07;102709.19;;;-0.27;76.37
53647;BME280;39550;52.230;5.194;2022-12-18T01:34:32;102686.50;;;-0.46;76.89
53647;BME280;39550;52.230;5.194;2022-12-18T01:36:57;102685.63;;;-0.47;76.89
53647;BME280;39550;52.230;5.194;2022-12-18T01:39:23;102678.25;;;-0.54;76.42
53647;BME280;39550;52.230;5.194;2022-12-18T01:41:48;102658.00;;;-0.64;76.62
53647;BME280;39550;52.230;5.194;2022-12-18T01:50:42;102718.91;;;-0.32;76.95
53647;BME280;39550;52.230;5.194;2022-12-18T01:55:22;102722.34;;;-0.31;76.43
53647;BME280;39550;52.230;5.194;2022-12-18T01:57:52;102743.47;;;-0.31;76.53
53647;BME280;39550;52.230;5.194;2022-12-18T02:00:19;102747.81;;;-0.30;77.02
53647;BME280;39550;52.230;5.194;2022-12-18T02:02:45;102731.34;;;-0.45;76.34
53647;BME280;39550;52.230;5.194;2022-12-18T02:08:15;102638.00;;;-0.92;76.30
53647;BME280;39550;52.230;5.194;2022-12-18T02:13:40;102767.19;;;-0.30;76.21
53647;BME280;39550;52.230;5.194;2022-12-18T02:16:18;102771.22;;;-0.32;76.57
53647;BME280;39550;52.230;5.194;2022-12-18T02:18:49;102731.94;;;-0.58;76.38
53647;BME280;39550;52.230;5.194;2022-12-18T02:21:26;102773.75;;;-0.32;76.27
53647;BME280;39550;52.230;5.194;2022-12-18T02:24:03;102707.38;;;-0.70;76.20
53647;BME280;39550;52.230;5.194;2022-12-18T02:26:47;102701.06;;;-0.75;76.29
53647;BME280;39550;52.230;5.194;2022-12-18T02:29:22;102730.94;;;-0.60;76.59
53647;BME280;39550;52.230;5.194;2022-12-18T02:31:52;102703.84;;;-0.72;76.53
53647;BME280;39550;52.230;5.194;2022-12-18T02:34:22;102690.16;;;-0.74;76.16
53647;BME280;39550;52.230;5.194;2022-12-18T02:36:48;102754.00;;;-0.37;76.71
53647;BME280;39550;52.230;5.194;2022-12-18T02:39:15;102622.03;;;-1.12;76.39
53647;BME280;39550;52.230;5.194;2022-12-18T02:41:42;102622.78;;;-1.13;76.56
53647;BME280;39550;52.230;5.194;2022-12-18T02:44:12;102677.00;;;-0.70;76.25
53647;BME280;39550;52.230;5.194;2022-12-18T02:46:41;102709.16;;;-0.48;76.72
53647;BME280;39550;52.230;5.194;2022-12-18T02:59:52;102703.72;;;-0.42;76.58
53647;BME280;39550;52.230;5.194;2022-12-18T03:02:26;102698.91;;;-0.49;76.38
53647;BME280;39550;52.230;5.194;2022-12-18T03:07:39;102686.34;;;-0.58;76.17
53647;BME280;39550;52.230;5.194;2022-12-18T03:10:08;102697.75;;;-0.53;76.19
53647;BME280;39550;52.230;5.194;2022-12-18T03:12:41;102608.63;;;-1.00;76.51
53647;BME280;39550;52.230;5.194;2022-12-18T03:15:10;102705.38;;;-0.43;76.01
53647;BME280;39550;52.230;5.194;2022-12-18T03:17:40;102594.72;;;-1.06;76.19
53647;BME280;39550;52.230;5.194;2022-12-18T03:20:12;102690.69;;;-0.47;76.15
53647;BME280;39550;52.230;5.194;2022-12-18T03:22:38;102614.47;;;-0.91;76.59
53647;BME280;39550;52.230;5.194;2022-12-18T03:25:09;102662.56;;;-0.60;76.45
53647;BME280;39550;52.230;5.194;2022-12-18T03:27:40;102684.59;;;-0.49;76.43
53647;BME280;39550;52.230;5.194;2022-12-18T03:30:08;102605.84;;;-0.93;76.46
53647;BME280;39550;52.230;5.194;2022-12-18T03:35:14;102614.34;;;-0.82;76.24
53647;BME280;39550;52.230;5.194;2022-12-18T03:37:42;102604.34;;;-0.91;76.14
53647;BME280;39550;52.230;5.194;2022-12-18T03:40:08;102652.31;;;-0.62;76.75
53647;BME280;39550;52.230;5.194;2022-12-18T03:42:53;102680.56;;;-0.47;75.72
53647;BME280;39550;52.230;5.194;2022-12-18T03:45:34;102605.34;;;-0.89;76.34
53647;BME280;39550;52.230;5.194;2022-12-18T03:48:32;102679.41;;;-0.50;76.25
53647;BME280;39550;52.230;5.194;2022-12-18T03:51:06;102617.25;;;-0.78;75.93
53647;BME280;39550;52.230;5.194;2022-12-18T03:56:04;102663.34;;;-0.51;76.11
53647;BME280;39550;52.230;5.194;2022-12-18T03:58:31;102659.53;;;-0.56;76.31
53647;BME280;39550;52.230;5.194;2022-12-18T04:01:00;102577.66;;;-0.98;75.96
53647;BME280;39550;52.230;5.194;2022-12-18T04:03:28;102565.88;;;-1.08;75.92
53647;BME280;39550;52.230;5.194;2022-12-18T04:05:56;102658.28;;;-0.51;75.86
53647;BME280;39550;52.230;5.194;2022-12-18T04:08:24;102657.38;;;-0.52;75.86
53647;BME280;39550;52.230;5.194;2022-12-18T04:10:50;102638.91;;;-0.61;75.79
53647;BME280;39550;52.230;5.194;2022-12-18T04:13:27;102637.75;;;-0.54;76.24
53647;BME280;39550;52.230;5.194;2022-12-18T04:15:53;102634.44;;;-0.53;76.44
53647;BME280;39550;52.230;5.194;2022-12-18T04:18:19;102609.66;;;-0.67;75.79
53647;BME280;39550;52.230;5.194;2022-12-18T04:20:44;102628.78;;;-0.61;76.22
53647;BME280;39550;52.230;5.194;2022-12-18T04:23:09;102618.13;;;-0.67;76.03
53647;BME280;39550;52.230;5.194;2022-12-18T04:25:35;102508.44;;;-1.29;75.83
53647;BME280;39550;52.230;5.194;2022-12-18T04:28:00;102561.56;;;-0.98;76.30
53647;BME280;39550;52.230;5.194;2022-12-18T04:30:25;102579.78;;;-0.92;76.21
53647;BME280;39550;52.230;5.194;2022-12-18T04:32:51;102611.56;;;-0.75;75.98
53647;BME280;39550;52.230;5.194;2022-12-18T04:35:16;102649.41;;;-0.56;75.81
53647;BME280;39550;52.230;5.194;2022-12-18T04:37:41;102597.63;;;-0.80;75.87
53647;BME280;39550;52.230;5.194;2022-12-18T04:40:07;102648.25;;;-0.60;75.25
53647;BME280;39550;52.230;5.194;2022-12-18T04:42:33;102655.97;;;-0.58;75.79
53647;BME280;39550;52.230;5.194;2022-12-18T04:44:58;102614.97;;;-0.85;75.98
53647;BME280;39550;52.230;5.194;2022-12-18T04:47:23;102572.19;;;-1.13;76.15
53647;BME280;39550;52.230;5.194;2022-12-18T04:49:49;102584.84;;;-1.03;75.82
53647;BME280;39550;52.230;5.194;2022-12-18T04:52:14;102589.41;;;-1.09;75.62
53647;BME280;39550;52.230;5.194;2022-12-18T04:54:39;102647.63;;;-0.78;76.15
53647;BME280;39550;52.230;5.194;2022-12-18T04:57:05;102679.25;;;-0.62;75.84
53647;BME280;39550;52.230;5.194;2022-12-18T04:59:30;102545.09;;;-1.45;75.72
53647;BME280;39550;52.230;5.194;2022-12-18T05:01:55;102631.16;;;-0.93;75.74
53647;BME280;39550;52.230;5.194;2022-12-18T05:04:22;102605.47;;;-1.08;75.50
53647;BME280;39550;52.230;5.194;2022-12-18T05:06:47;102661.81;;;-0.80;75.52
53647;BME280;39550;52.230;5.194;2022-12-18T05:09:13;102690.94;;;-0.64;75.97
53647;BME280;39550;52.230;5.194;2022-12-18T05:11:38;102693.47;;;-0.64;75.69
53647;BME280;39550;52.230;5.194;2022-12-18T05:14:03;102601.41;;;-1.27;75.38
53647;BME280;39550;52.230;5.194;2022-12-18T05:16:29;102659.41;;;-0.89;75.82
53647;BME280;39550;52.230;5.194;2022-12-18T05:18:54;102681.03;;;-0.82;75.62
53647;BME280;39550;52.230;5.194;2022-12-18T05:21:19;102610.50;;;-1.18;75.44
53647;BME280;39550;52.230;5.194;2022-12-18T05:23:45;102689.66;;;-0.80;75.78
53647;BME280;39550;52.230;5.194;2022-12-18T05:26:15;102698.53;;;-0.75;75.49
53647;BME280;39550;52.230;5.194;2022-12-18T05:28:41;102639.50;;;-1.15;75.83
53647;BME280;39550;52.230;5.194;2022-12-18T05:31:06;102655.44;;;-1.06;75.75
53647;BME280;39550;52.230;5.194;2022-12-18T05:33:34;102690.91;;;-0.85;75.23
53647;BME280;39550;52.230;5.194;2022-12-18T05:36:01;102714.09;;;-0.70;75.84
53647;BME280;39550;52.230;5.194;2022-12-18T05:38:27;102619.47;;;-1.22;75.49
53647;BME280;39550;52.230;5.194;2022-12-18T05:40:53;102641.41;;;-1.02;75.54
53647;BME280;39550;52.230;5.194;2022-12-18T05:43:20;102675.84;;;-0.83;75.25
53647;BME280;39550;52.230;5.194;2022-12-18T05:45:46;102625.19;;;-1.14;75.28
53647;BME280;39550;52.230;5.194;2022-12-18T05:48:12;102615.31;;;-1.11;75.12
53647;BME280;39550;52.230;5.194;2022-12-18T05:50:39;102636.72;;;-1.08;75.62
53647;BME280;39550;52.230;5.194;2022-12-18T05:53:05;102664.09;;;-0.83;75.04
53647;BME280;39550;52.230;5.194;2022-12-18T05:55:38;102597.00;;;-1.19;75.50
53647;BME280;39550;52.230;5.194;2022-12-18T05:58:05;102671.44;;;-0.76;75.01
53647;BME280;39550;52.230;5.194;2022-12-18T06:00:32;102654.47;;;-0.87;75.56
53647;BME280;39550;52.230;5.194;2022-12-18T06:02:59;102682.69;;;-0.72;74.94
53647;BME280;39550;52.230;5.194;2022-12-18T06:05:25;102665.84;;;-0.82;75.39
53647;BME280;39550;52.230;5.194;2022-12-18T06:07:51;102530.63;;;-1.66;75.10
53647;BME280;39550;52.230;5.194;2022-12-18T06:10:16;102633.56;;;-0.95;75.47
53647;BME280;39550;52.230;5.194;2022-12-18T06:12:42;102510.03;;;-1.71;75.24
53647;BME280;39550;52.230;5.194;2022-12-18T06:15:08;102657.25;;;-0.84;75.22
53647;BME280;39550;52.230;5.194;2022-12-18T06:17:34;102602.56;;;-1.13;75.24
53647;BME280;39550;52.230;5.194;2022-12-18T06:19:59;102611.16;;;-1.11;75.48
53647;BME280;39550;52.230;5.194;2022-12-18T06:22:26;102656.50;;;-0.83;75.38
53647;BME280;39550;52.230;5.194;2022-12-18T06:24:52;102647.50;;;-0.90;75.35
53647;BME280;39550;52.230;5.194;2022-12-18T06:27:17;102574.19;;;-1.29;75.20
53647;BME280;39550;52.230;5.194;2022-12-18T06:29:43;102654.84;;;-0.82;74.83
53647;BME280;39550;52.230;5.194;2022-12-18T06:32:08;102620.53;;;-0.99;75.28
53647;BME280;39550;52.230;5.194;2022-12-18T06:34:34;102610.50;;;-1.08;74.96
53647;BME280;39550;52.230;5.194;2022-12-18T06:37:01;102635.47;;;-0.92;75.35
53647;BME280;39550;52.230;5.194;2022-12-18T06:39:27;102631.94;;;-0.84;74.97
53647;BME280;39550;52.230;5.194;2022-12-18T06:41:53;102571.53;;;-1.21;74.90
53647;BME280;39550;52.230;5.194;2022-12-18T06:44:18;102575.47;;;-1.14;75.07
53647;BME280;39550;52.230;5.194;2022-12-18T06:46:44;102624.84;;;-0.88;75.22
53647;BME280;39550;52.230;5.194;2022-12-18T06:49:09;102565.97;;;-1.16;74.72
53647;BME280;39550;52.230;5.194;2022-12-18T06:51:35;102612.81;;;-0.91;75.00
53647;BME280;39550;52.230;5.194;2022-12-18T06:54:00;102573.84;;;-1.13;75.08
53647;BME280;39550;52.230;5.194;2022-12-18T06:56:26;102559.56;;;-1.23;75.20
53647;BME280;39550;52.230;5.194;2022-12-18T06:58:52;102616.22;;;-0.90;75.13
53647;BME280;39550;52.230;5.194;2022-12-18T07:01:17;102601.03;;;-0.90;75.02
53647;BME280;39550;52.230;5.194;2022-12-18T07:03:43;102508.94;;;-1.44;75.02
53647;BME280;39550;52.230;5.194;2022-12-18T07:06:19;102502.97;;;-1.44;75.15
53647;BME280;39550;52.230;5.194;2022-12-18T07:08:46;102434.06;;;-1.83;74.67
53647;BME280;39550;52.230;5.194;2022-12-18T07:11:12;102534.09;;;-1.25;74.86
53647;BME280;39550;52.230;5.194;2022-12-18T07:13:41;102535.75;;;-1.25;74.74
53647;BME280;39550;52.230;5.194;2022-12-18T07:16:12;102542.84;;;-1.21;74.65
53647;BME280;39550;52.230;5.194;2022-12-18T07:18:38;102501.47;;;-1.42;74.55
53647;BME280;39550;52.230;5.194;2022-12-18T07:21:08;102450.50;;;-1.78;74.95
53647;BME280;39550;52.230;5.194;2022-12-18T07:23:39;102501.09;;;-1.47;74.86
53647;BME280;39550;52.230;5.194;2022-12-18T07:26:10;102503.59;;;-1.47;74.52
53647;BME280;39550;52.230;5.194;2022-12-18T07:28:37;102585.59;;;-0.93;74.54
53647;BME280;39550;52.230;5.194;2022-12-18T07:31:04;102535.00;;;-1.24;74.92
53647;BME280;39550;52.230;5.194;2022-12-18T07:33:31;102480.09;;;-1.56;74.78
53647;BME280;39550;52.230;5.194;2022-12-18T07:35:58;102546.66;;;-1.16;74.64
53647;BME280;39550;52.230;5.194;2022-12-18T07:38:24;102554.09;;;-1.07;74.78
53647;BME280;39550;52.230;5.194;2022-12-18T07:40:49;102558.66;;;-1.03;74.84
53647;BME280;39550;52.230;5.194;2022-12-18T07:43:14;102559.81;;;-0.99;74.62
53647;BME280;39550;52.230;5.194;2022-12-18T07:45:40;102558.03;;;-1.00;74.67
53647;BME280;39550;52.230;5.194;2022-12-18T07:48:05;102500.34;;;-1.25;74.64
53647;BME280;39550;52.230;5.194;2022-12-18T07:50:33;102537.78;;;-1.00;74.57
53647;BME280;39550;52.230;5.194;2022-12-18T07:52:59;102495.03;;;-1.28;75.00
53647;BME280;39550;52.230;5.194;2022-12-18T07:55:29;102540.19;;;-1.02;74.65
53647;BME280;39550;52.230;5.194;2022-12-18T07:57:55;102514.28;;;-1.20;74.70
53647;BME280;39550;52.230;5.194;2022-12-18T08:00:20;102470.50;;;-1.40;74.51
53647;BME280;39550;52.230;5.194;2022-12-18T08:02:46;102544.63;;;-0.99;74.86
53647;BME280;39550;52.230;5.194;2022-12-18T08:05:12;102481.13;;;-1.33;74.89
53647;BME280;39550;52.230;5.194;2022-12-18T08:07:38;102529.16;;;-1.03;74.45
53647;BME280;39550;52.230;5.194;2022-12-18T08:10:04;102536.25;;;-0.98;74.46
53647;BME280;39550;52.230;5.194;2022-12-18T08:12:30;102539.56;;;-0.99;74.76
53647;BME280;39550;52.230;5.194;2022-12-18T08:14:55;102538.78;;;-0.98;74.63
53647;BME280;39550;52.230;5.194;2022-12-18T08:17:20;102540.44;;;-0.99;74.43
53647;BME280;39550;52.230;5.194;2022-12-18T08:19:46;102545.13;;;-1.04;74.37
53647;BME280;39550;52.230;5.194;2022-12-18T08:22:11;102553.84;;;-1.00;74.14
53647;BME280;39550;52.230;5.194;2022-12-18T08:24:36;102563.09;;;-1.00;74.71
53647;BME280;39550;52.230;5.194;2022-12-18T08:27:02;102573.22;;;-1.00;74.95
53647;BME280;39550;52.230;5.194;2022-12-18T08:29:27;102572.47;;;-0.99;74.76
53647;BME280;39550;52.230;5.194;2022-12-18T08:31:53;102564.88;;;-0.99;74.72
53647;BME280;39550;52.230;5.194;2022-12-18T08:34:18;102563.09;;;-1.00;74.41
53647;BME280;39550;52.230;5.194;2022-12-18T08:36:44;102561.31;;;-1.01;74.81
53647;BME280;39550;52.230;5.194;2022-12-18T08:39:09;102566.50;;;-1.00;74.78
53647;BME280;39550;52.230;5.194;2022-12-18T08:41:34;102556.25;;;-1.01;74.12
53647;BME280;39550;52.230;5.194;2022-12-18T08:44:07;102556.25;;;-1.01;74.63
53647;BME280;39550;52.230;5.194;2022-12-18T08:46:51;102552.97;;;-1.00;75.02
53647;BME280;39550;52.230;5.194;2022-12-18T08:49:16;102546.13;;;-1.01;74.21
53647;BME280;39550;52.230;5.194;2022-12-18T08:51:42;102553.84;;;-1.00;74.74
53647;BME280;39550;52.230;5.194;2022-12-18T08:54:11;102548.91;;;-0.98;74.59
53647;BME280;39550;52.230;5.194;2022-12-18T08:56:37;102553.22;;;-0.97;74.68
53647;BME280;39550;52.230;5.194;2022-12-18T08:59:02;102556.50;;;-0.98;74.86
53647;BME280;39550;52.230;5.194;2022-12-18T09:01:29;102561.56;;;-0.98;74.26
53647;BME280;39550;52.230;5.194;2022-12-18T09:03:54;102552.22;;;-0.99;74.94
53647;BME280;39550;52.230;5.194;2022-12-18T09:06:21;102544.63;;;-0.99;74.91
53647;BME280;39550;52.230;5.194;2022-12-18T09:08:47;102537.78;;;-1.00;74.58
53647;BME280;39550;52.230;5.194;2022-12-18T09:11:38;102541.31;;;-0.98;74.25
53647;BME280;39550;52.230;5.194;2022-12-18T09:14:03;102540.19;;;-1.02;74.52
53647;BME280;39550;52.230;5.194;2022-12-18T09:16:29;102552.22;;;-0.99;74.65
53647;BME280;39550;52.230;5.194;2022-12-18T09:18:55;102546.38;;;-0.98;74.21
53647;BME280;39550;52.230;5.194;2022-12-18T09:21:26;102539.56;;;-0.99;74.77
53647;BME280;39550;52.230;5.194;2022-12-18T09:23:53;102545.50;;;-0.99;74.61
53647;BME280;39550;52.230;5.194;2022-12-18T09:26:20;102541.31;;;-0.98;74.61
53647;BME280;39550;52.230;5.194;2022-12-18T09:28:46;102533.59;;;-1.00;74.31
53647;BME280;39550;52.230;5.194;2022-12-18T09:31:12;102534.50;;;-0.99;74.32
53647;BME280;39550;52.230;5.194;2022-12-18T09:33:41;102524.38;;;-0.99;74.42
53647;BME280;39550;52.230;5.194;2022-12-18T09:36:09;102516.91;;;-0.98;74.47
53647;BME280;39550;52.230;5.194;2022-12-18T09:38:35;102523.59;;;-0.98;74.25
53647;BME280;39550;52.230;5.194;2022-12-18T09:47:35;102529.44;;;-0.99;74.21
53647;BME280;39550;52.230;5.194;2022-12-18T09:50:30;102521.06;;;-0.98;74.30
53647;BME280;39550;52.230;5.194;2022-12-18T09:52:59;102515.88;;;-1.00;74.16
53647;BME280;39550;52.230;5.194;2022-12-18T09:55:34;102509.22;;;-0.99;74.36
53647;BME280;39550;52.230;5.194;2022-12-18T10:00:54;102496.03;;;-0.95;74.25
53647;BME280;39550;52.230;5.194;2022-12-18T10:03:20;102496.69;;;-0.98;74.46
53647;BME280;39550;52.230;5.194;2022-12-18T10:06:10;102489.19;;;-0.96;74.31
53647;BME280;39550;52.230;5.194;2022-12-18T10:09:06;102502.59;;;-0.97;74.22
53647;BME280;39550;52.230;5.194;2022-12-18T10:11:52;102502.59;;;-0.97;74.67
53647;BME280;39550;52.230;5.194;2022-12-18T10:25:18;102497.31;;;-1.00;74.44
53647;BME280;39550;52.230;5.194;2022-12-18T10:27:46;102486.44;;;-0.99;74.16
53647;BME280;39550;52.230;5.194;2022-12-18T10:30:17;102483.91;;;-0.99;74.09
53647;BME280;39550;52.230;5.194;2022-12-18T10:32:42;102482.13;;;-1.00;74.04
53647;BME280;39550;52.230;5.194;2022-12-18T10:35:19;102493.13;;;-1.00;74.29
53647;BME280;39550;52.230;5.194;2022-12-18T10:38:02;102500.06;;;-0.97;74.03
53647;BME280;39550;52.230;5.194;2022-12-18T10:40:28;102479.97;;;-0.96;74.40
53647;BME280;39550;52.230;5.194;2022-12-18T10:43:05;102472.47;;;-0.94;74.28
53647;BME280;39550;52.230;5.194;2022-12-18T10:45:31;102470.84;;;-0.94;74.17
53647;BME280;39550;52.230;5.194;2022-12-18T10:47:56;102471.50;;;-0.96;74.67
53647;BME280;39550;52.230;5.194;2022-12-18T10:50:28;102470.97;;;-0.92;74.21
53647;BME280;39550;52.230;5.194;2022-12-18T10:52:56;102471.63;;;-0.95;74.62
53647;BME280;39550;52.230;5.194;2022-12-18T10:55:22;102460.63;;;-0.95;74.25
53647;BME280;39550;52.230;5.194;2022-12-18T10:57:50;102468.97;;;-0.96;74.53
53647;BME280;39550;52.230;5.194;2022-12-18T11:00:28;102449.59;;;-0.96;74.27
53647;BME280;39550;52.230;5.194;2022-12-18T11:02:55;102442.91;;;-0.95;74.59
53647;BME280;39550;52.230;5.194;2022-12-18T11:05:28;102435.31;;;-0.95;74.54
53647;BME280;39550;52.230;5.194;2022-12-18T11:07:54;102430.25;;;-0.95;74.37
53647;BME280;39550;52.230;5.194;2022-12-18T11:10:22;102437.06;;;-0.94;74.46
53647;BME280;39550;52.230;5.194;2022-12-18T11:12:48;102440.38;;;-0.95;74.57
53647;BME280;39550;52.230;5.194;2022-12-18T11:15:20;102435.31;;;-0.95;74.75
53647;BME280;39550;52.230;5.194;2022-12-18T11:17:48;102431.13;;;-0.95;74.16
53647;BME280;39550;52.230;5.194;2022-12-18T11:20:22;102425.44;;;-0.92;74.29
53647;BME280;39550;52.230;5.194;2022-12-18T11:23:15;102419.50;;;-0.93;74.25
53647;BME280;39550;52.230;5.194;2022-12-18T11:25:59;102416.06;;;-0.93;74.41
53647;BME280;39550;52.230;5.194;2022-12-18T11:33:34;102419.09;;;-0.87;74.59
53647;BME280;39550;52.230;5.194;2022-12-18T11:36:03;102412.25;;;-0.88;74.22
53647;BME280;39550;52.230;5.194;2022-12-18T11:38:32;102419.09;;;-0.87;74.61
53647;BME280;39550;52.230;5.194;2022-12-18T11:41:23;102418.06;;;-0.89;74.48
53647;BME280;39550;52.230;5.194;2022-12-18T11:44:11;102410.47;;;-0.89;74.62
53647;BME280;39550;52.230;5.194;2022-12-18T11:46:45;102407.19;;;-0.88;74.62
53647;BME280;39550;52.230;5.194;2022-12-18T11:49:28;102409.72;;;-0.88;74.29
53647;BME280;39550;52.230;5.194;2022-12-18T11:52:18;102403.66;;;-0.90;74.72
53647;BME280;39550;52.230;5.194;2022-12-18T11:54:44;102396.84;;;-0.91;74.40
53647;BME280;39550;52.230;5.194;2022-12-18T11:57:18;102379.00;;;-0.93;75.01
53647;BME280;39550;52.230;5.194;2022-12-18T12:00:11;102374.06;;;-0.91;74.33
53647;BME280;39550;52.230;5.194;2022-12-18T12:07:58;102350.38;;;-0.92;74.75
53647;BME280;39550;52.230;5.194;2022-12-18T12:10:52;102340.91;;;-0.94;74.66
53647;BME280;39550;52.230;5.194;2022-12-18T12:16:31;102339.16;;;-0.95;74.96
53647;BME280;39550;52.230;5.194;2022-12-18T12:19:25;102331.28;;;-0.88;74.65
53647;BME280;39550;52.230;5.194;2022-12-18T12:22:07;102333.06;;;-0.87;74.57
53647;BME280;39550;52.230;5.194;2022-12-18T12:24:47;102332.25;;;-0.86;74.68
53647;BME280;39550;52.230;5.194;2022-12-18T12:30:06;102333.06;;;-0.87;74.92
53647;BME280;39550;52.230;5.194;2022-12-18T12:35:43;102321.78;;;-0.91;74.81
53647;BME280;39550;52.230;5.194;2022-12-18T12:38:23;102324.44;;;-0.89;75.04
53647;BME280;39550;52.230;5.194;2022-12-18T12:41:02;102315.34;;;-0.87;74.88
53647;BME280;39550;52.230;5.194;2022-12-18T12:43:42;102302.69;;;-0.87;74.96
53647;BME280;39550;52.230;5.194;2022-12-18T12:46:11;102306.97;;;-0.86;74.93
53647;BME280;39550;52.230;5.194;2022-12-18T12:51:12;102295.84;;;-0.88;74.37
53647;BME280;39550;52.230;5.194;2022-12-18T12:53:39;102293.31;;;-0.88;74.81
53647;BME280;39550;52.230;5.194;2022-12-18T12:56:05;102294.06;;;-0.89;74.57
53647;BME280;39550;52.230;5.194;2022-12-18T12:59:02;102296.59;;;-0.89;74.54
53647;BME280;39550;52.230;5.194;2022-12-18T13:04:21;102282.16;;;-0.90;74.64
53647;BME280;39550;52.230;5.194;2022-12-18T13:09:24;102291.78;;;-0.86;74.93
53647;BME280;39550;52.230;5.194;2022-12-18T13:11:49;102291.78;;;-0.86;74.63
53647;BME280;39550;52.230;5.194;2022-12-18T13:14:36;102294.31;;;-0.86;75.16
53647;BME280;39550;52.230;5.194;2022-12-18T13:19:51;102290.03;;;-0.87;74.96
53647;BME280;39550;52.230;5.194;2022-12-18T13:22:28;102287.38;;;-0.89;74.61
53647;BME280;39550;52.230;5.194;2022-12-18T13:24:55;102282.16;;;-0.90;74.89
53647;BME280;39550;52.230;5.194;2022-12-18T13:38:33;102255.13;;;-0.91;75.32
53647;BME280;39550;52.230;5.194;2022-12-18T13:41:04;102241.69;;;-0.90;75.10
53647;BME280;39550;52.230;5.194;2022-12-18T13:43:54;102228.91;;;-0.92;74.74
53647;BME280;39550;52.230;5.194;2022-12-18T13:49:00;102205.81;;;-0.96;75.12
53647;BME280;39550;52.230;5.194;2022-12-18T13:51:28;102209.56;;;-0.91;74.92
53647;BME280;39550;52.230;5.194;2022-12-18T13:54:33;102209.81;;;-0.88;74.73
53647;BME280;39550;52.230;5.194;2022-12-18T13:57:00;102207.28;;;-0.88;75.21
53647;BME280;39550;52.230;5.194;2022-12-18T13:59:33;102208.03;;;-0.89;74.98
53647;BME280;39550;52.230;5.194;2022-12-18T14:02:01;102208.03;;;-0.89;74.68
53647;BME280;39550;52.230;5.194;2022-12-18T14:04:32;102206.25;;;-0.90;75.25
53647;BME280;39550;52.230;5.194;2022-12-18T14:07:07;102202.84;;;-0.91;75.21
53647;BME280;39550;52.230;5.194;2022-12-18T14:09:40;102204.75;;;-0.88;75.34
53647;BME280;39550;52.230;5.194;2022-12-18T14:12:32;102208.03;;;-0.89;74.95
53647;BME280;39550;52.230;5.194;2022-12-18T14:17:50;102208.03;;;-0.89;74.94
53647;BME280;39550;52.230;5.194;2022-12-18T14:22:46;102190.22;;;-0.91;74.99
53647;BME280;39550;52.230;5.194;2022-12-18T14:27:42;102185.16;;;-0.91;75.13
53647;BME280;39550;52.230;5.194;2022-12-18T14:30:40;102188.69;;;-0.89;75.12
53647;BME280;39550;52.230;5.194;2022-12-18T14:33:10;102179.44;;;-0.88;75.33
53647;BME280;39550;52.230;5.194;2022-12-18T14:35:38;102164.91;;;-0.91;75.23
53647;BME280;39550;52.230;5.194;2022-12-18T14:38:32;102167.53;;;-0.89;75.08
53647;BME280;39550;52.230;5.194;2022-12-18T14:41:18;102162.47;;;-0.89;74.74
53647;BME280;39550;52.230;5.194;2022-12-18T14:43:46;102153.00;;;-0.92;75.30
53647;BME280;39550;52.230;5.194;2022-12-18T14:46:38;102150.59;;;-0.90;75.34
53647;BME280;39550;52.230;5.194;2022-12-18T14:49:42;102151.25;;;-0.93;75.47